Time;durP1;ratioP1;P1;durP2;ratioP2;P2;SDS_P1;SDS_P2;PMS_P1;PMS_P2;Temp;Humidity;BMP_temperature;BMP_pressure;BME280_temperature;BME280_humidity;BME280_pressure;Samples;Min_cycle;Max_cycle;Signal;HPM_P1;HPM_P2
2021/01/10 00:00:29;;;;;;;23.63;8.77;;;;;;;-4.83;99.61;96737.00;5000172;28;20220;-70
2021/01/10 00:02:56;;;;;;;18.30;8.47;;;;;;;-4.85;98.79;96734.50;5000642;28;20620;-70
2021/01/10 00:05:24;;;;;;;25.53;9.37;;;;;;;-4.78;99.11;96734.13;4999489;28;20231;-69
2021/01/10 00:07:50;;;;;;;21.90;8.60;;;;;;;-4.94;99.28;96728.97;5000139;28;20237;-70
2021/01/10 00:10:18;;;;;;;20.77;8.10;;;;;;;-5.07;97.73;96735.59;5000435;28;20208;-70
2021/01/10 00:12:45;;;;;;;22.77;8.63;;;;;;;-4.83;98.37;96734.44;5000395;28;20212;-70
2021/01/10 00:15:14;;;;;;;20.77;9.90;;;;;;;-4.79;98.66;96735.03;4998896;28;20244;-71
2021/01/10 00:17:41;;;;;;;22.70;8.60;;;;;;;-4.78;98.67;96726.41;5000280;28;20210;-70
2021/01/10 00:20:09;;;;;;;20.93;8.30;;;;;;;-4.88;100.00;96736.41;4999692;28;20201;-70
2021/01/10 00:22:35;;;;;;;18.53;8.33;;;;;;;-4.94;100.00;96734.13;4999999;28;20198;-70
2021/01/10 00:25:01;;;;;;;20.57;8.80;;;;;;;-4.78;100.00;96728.16;4998891;28;20232;-71
2021/01/10 00:27:28;;;;;;;21.60;8.83;;;;;;;-4.78;100.00;96736.69;5001232;28;20226;-70
2021/01/10 00:29:54;;;;;;;23.33;9.70;;;;;;;-4.59;100.00;96734.09;4999679;28;20245;-70
2021/01/10 00:32:20;;;;;;;24.30;8.70;;;;;;;-4.41;100.00;96736.56;4999640;28;20245;-71
2021/01/10 00:34:46;;;;;;;21.07;8.20;;;;;;;-4.27;100.00;96735.91;5000188;28;20218;-70
2021/01/10 00:37:14;;;;;;;20.97;8.40;;;;;;;-4.26;100.00;96740.97;4999279;28;20215;-71
2021/01/10 00:39:40;;;;;;;22.13;8.80;;;;;;;-4.15;100.00;96736.09;4998979;28;20655;-71
2021/01/10 00:42:08;;;;;;;20.10;8.40;;;;;;;-4.13;100.00;96732.53;5000180;28;20229;-71
2021/01/10 00:44:35;;;;;;;20.03;9.23;;;;;;;-3.98;100.00;96736.91;4999329;28;20226;-70
2021/01/10 00:47:02;;;;;;;21.33;8.63;;;;;;;-3.88;100.00;96737.25;4998187;28;20223;-70
2021/01/10 00:49:28;;;;;;;23.60;10.00;;;;;;;-3.82;100.00;96736.97;4999694;28;20202;-70
2021/01/10 00:51:54;;;;;;;23.83;9.93;;;;;;;-3.74;100.00;96737.38;4999209;28;20199;-69
2021/01/10 00:54:20;;;;;;;22.93;9.33;;;;;;;-3.79;100.00;96737.63;4999140;28;20320;-70
2021/01/10 00:56:46;;;;;;;21.50;9.27;;;;;;;-3.76;100.00;96744.38;4998593;28;20250;-70
2021/01/10 00:59:12;;;;;;;24.43;10.13;;;;;;;-3.58;100.00;96739.94;4999254;28;20275;-69
2021/01/10 01:01:39;;;;;;;22.80;10.23;;;;;;;-3.59;100.00;96739.97;4998350;28;20699;-71
2021/01/10 01:04:05;;;;;;;22.87;10.53;;;;;;;-3.45;100.00;96747.81;4998924;28;20232;-70
2021/01/10 01:06:32;;;;;;;20.90;9.90;;;;;;;-3.37;100.00;96740.53;4997753;28;20616;-70
2021/01/10 01:08:58;;;;;;;21.87;10.27;;;;;;;-3.39;100.00;96743.16;4999078;28;20290;-70
2021/01/10 01:11:27;;;;;;;23.63;10.97;;;;;;;-3.37;100.00;96745.69;4998633;28;20207;-70
2021/01/10 01:13:53;;;;;;;20.13;9.43;;;;;;;-3.29;100.00;96741.78;4999198;28;20203;-70
2021/01/10 01:16:19;;;;;;;20.73;9.73;;;;;;;-3.24;100.00;96744.94;4998472;28;21090;-71
2021/01/10 01:18:46;;;;;;;23.00;10.10;;;;;;;-3.20;100.00;96746.44;4999180;28;20206;-70
2021/01/10 01:21:14;;;;;;;21.80;9.50;;;;;;;-3.23;100.00;96736.28;4999263;28;20949;-70
2021/01/10 01:23:40;;;;;;;22.27;9.97;;;;;;;-3.27;100.00;96745.13;4999013;28;20268;-71
2021/01/10 01:26:06;;;;;;;19.50;9.47;;;;;;;-3.14;100.00;96743.53;4997452;28;20199;-70
2021/01/10 01:28:32;;;;;;;26.43;11.07;;;;;;;-3.08;100.00;96743.22;4999508;28;20588;-70
2021/01/10 01:30:58;;;;;;;23.27;9.47;;;;;;;-2.98;100.00;96749.50;4997466;28;20234;-70
2021/01/10 01:33:24;;;;;;;23.67;10.03;;;;;;;-2.92;100.00;96754.31;4998692;28;20229;-69
2021/01/10 01:35:51;;;;;;;22.67;10.07;;;;;;;-2.96;100.00;96750.25;4997943;28;20677;-71
2021/01/10 01:38:17;;;;;;;21.53;9.97;;;;;;;-3.07;100.00;96750.00;4999191;28;20203;-70
2021/01/10 01:40:43;;;;;;;23.63;10.33;;;;;;;-3.06;100.00;96745.69;4998038;28;20305;-71
2021/01/10 01:43:09;;;;;;;24.00;10.43;;;;;;;-2.91;100.00;96750.84;4998880;28;20256;-70
2021/01/10 01:45:35;;;;;;;23.50;9.70;;;;;;;-2.89;100.00;96746.41;4997567;28;20225;-70
2021/01/10 01:48:04;;;;;;;26.40;10.40;;;;;;;-3.11;100.00;96748.50;4998392;28;20894;-70
2021/01/10 01:50:30;;;;;;;24.33;10.70;;;;;;;-2.92;100.00;96754.31;4998139;28;20210;-70
2021/01/10 01:52:57;;;;;;;24.17;10.43;;;;;;;-2.76;100.00;96760.28;4998160;28;20206;-70
2021/01/10 01:55:23;;;;;;;22.23;10.53;;;;;;;-2.70;100.00;96754.81;4997896;28;20237;-70
2021/01/10 01:57:49;;;;;;;24.73;9.90;;;;;;;-2.64;100.00;96759.63;4998211;28;20195;-71
2021/01/10 02:00:16;;;;;;;26.13;10.37;;;;;;;-2.55;100.00;96766.84;4998590;28;20214;-70
2021/01/10 02:02:42;;;;;;;24.93;10.97;;;;;;;-2.62;100.00;96766.38;4998136;28;20207;-70
2021/01/10 02:05:13;;;;;;;26.70;10.83;;;;;;;-2.58;100.00;96754.09;4997670;28;20257;-71
2021/01/10 02:07:43;;;;;;;23.30;10.30;;;;;;;-2.75;100.00;96751.66;4997560;28;20230;-70
2021/01/10 02:10:14;;;;;;;26.27;10.37;;;;;;;-2.68;100.00;96748.66;4998002;28;20796;-70
2021/01/10 02:12:48;;;;;;;23.10;10.27;;;;;;;-2.69;100.00;96752.13;4997318;28;21650;-69
2021/01/10 02:15:19;;;;;;;24.20;10.10;;;;;;;-2.52;100.00;96743.44;4997587;28;20280;-70
2021/01/10 02:17:49;;;;;;;23.30;9.90;;;;;;;-2.53;100.00;96750.38;4997742;28;20202;-70
2021/01/10 02:20:20;;;;;;;23.87;10.23;;;;;;;-2.53;100.00;96752.09;4997826;28;20203;-69
2021/01/10 02:22:49;;;;;;;23.93;10.90;;;;;;;-2.44;100.00;96752.44;4997970;28;20205;-70
2021/01/10 02:25:17;;;;;;;27.10;10.73;;;;;;;-2.35;100.00;96749.31;4996941;28;20261;-68
2021/01/10 02:27:44;;;;;;;23.13;10.33;;;;;;;-2.35;100.00;96750.16;4997543;28;20223;-67
2021/01/10 02:30:12;;;;;;;24.30;10.80;;;;;;;-2.16;100.00;96748.19;4997493;28;20213;-68
2021/01/10 02:32:42;;;;;;;23.73;10.93;;;;;;;-2.27;100.00;96758.28;4997195;28;20268;-68
2021/01/10 02:35:10;;;;;;;26.47;10.90;;;;;;;-2.28;100.00;96753.19;4996560;28;20214;-68
2021/01/10 02:37:53;;;;;;;25.03;10.37;;;;;;;-2.33;100.00;96753.47;4997600;28;20201;-67
2021/01/10 02:40:27;;;;;;;23.50;10.23;;;;;;;-2.52;100.00;96748.59;4997516;28;20206;-67
2021/01/10 02:42:58;;;;;;;25.57;10.87;;;;;;;-2.32;100.00;96747.41;4996670;28;20216;-67
2021/01/10 02:45:25;;;;;;;24.90;10.47;;;;;;;-2.16;100.00;96749.94;4997369;28;20229;-68
2021/01/10 02:47:52;;;;;;;23.63;10.37;;;;;;;-2.29;100.00;96748.94;4997685;28;20273;-68
2021/01/10 02:50:18;;;;;;;23.10;9.73;;;;;;;-2.30;100.00;96745.56;4997269;28;20214;-68
2021/01/10 02:52:46;;;;;;;25.70;9.83;;;;;;;-2.21;100.00;96745.03;4996877;28;20256;-67
2021/01/10 02:55:12;;;;;;;22.73;10.13;;;;;;;-2.20;100.00;96746.69;4997508;28;20597;-68
2021/01/10 02:57:43;;;;;;;21.30;9.50;;;;;;;-2.16;100.00;96748.19;4996637;28;20229;-68
2021/01/10 03:00:11;;;;;;;22.50;10.13;;;;;;;-2.08;100.00;96745.97;4997692;28;20207;-68
2021/01/10 03:02:38;;;;;;;22.87;10.10;;;;;;;-2.09;100.00;96746.06;4997046;28;20292;-68
2021/01/10 03:05:06;;;;;;;23.13;9.80;;;;;;;-2.20;100.00;96746.69;4996087;28;20280;-68
2021/01/10 03:07:32;;;;;;;25.40;10.47;;;;;;;-2.18;100.00;96739.66;4997114;28;20223;-68
2021/01/10 03:09:59;;;;;;;23.53;9.30;;;;;;;-2.14;100.00;96736.03;4995620;28;20210;-68
2021/01/10 03:12:25;;;;;;;25.50;10.63;;;;;;;-2.13;100.00;96735.09;4997578;28;20212;-67
2021/01/10 03:14:53;;;;;;;24.40;9.83;;;;;;;-2.13;100.00;96734.25;4996904;28;20571;-68
2021/01/10 03:17:29;;;;;;;23.17;10.20;;;;;;;-2.16;100.00;96737.03;4997081;28;20248;-67
2021/01/10 03:19:55;;;;;;;21.13;9.33;;;;;;;-2.11;100.00;96730.69;4996682;28;20206;-67
2021/01/10 03:22:21;;;;;;;26.97;10.80;;;;;;;-2.17;100.00;96733.59;4997383;28;20226;-68
2021/01/10 03:24:47;;;;;;;26.27;10.50;;;;;;;-2.20;100.00;96731.22;4996572;28;20229;-68
2021/01/10 03:27:13;;;;;;;23.80;10.30;;;;;;;-2.23;100.00;96726.22;4996405;28;20276;-68
2021/01/10 03:29:39;;;;;;;23.83;10.53;;;;;;;-2.16;100.00;96730.09;4996291;28;20264;-69
2021/01/10 03:32:06;;;;;;;24.27;9.97;;;;;;;-2.35;100.00;96737.25;4996963;28;20230;-67
2021/01/10 03:34:32;;;;;;;23.73;9.77;;;;;;;-2.25;100.00;96728.06;4996724;28;20284;-67
2021/01/10 03:36:58;;;;;;;21.87;10.20;;;;;;;-2.37;100.00;96727.94;4996157;28;20281;-67
2021/01/10 03:39:24;;;;;;;26.30;10.43;;;;;;;-2.28;100.00;96733.41;4996892;28;20213;-67
2021/01/10 03:41:50;;;;;;;24.13;10.63;;;;;;;-2.21;100.00;96724.38;4996647;28;20207;-67
2021/01/10 03:44:16;;;;;;;23.53;10.00;;;;;;;-2.28;100.00;96712.75;4996657;28;20734;-67
2021/01/10 03:46:42;;;;;;;25.40;10.93;;;;;;;-2.34;100.00;96718.28;4996026;28;20227;-67
2021/01/10 03:49:09;;;;;;;26.40;10.27;;;;;;;-2.43;100.00;96723.13;4996817;28;20640;-68
2021/01/10 03:51:35;;;;;;;21.33;10.17;;;;;;;-2.34;100.00;96722.59;4996921;28;20352;-68
2021/01/10 03:54:01;;;;;;;24.63;10.40;;;;;;;-2.64;100.00;96720.94;4997031;28;20714;-67
2021/01/10 03:56:27;;;;;;;25.07;10.37;;;;;;;-2.62;100.00;96726.81;5000480;28;20202;-67
2021/01/10 03:58:53;;;;;;;20.50;9.50;;;;;;;-2.59;100.00;96721.50;5000183;28;21175;-67
2021/01/10 04:01:19;;;;;;;22.97;10.20;;;;;;;-2.45;100.00;96713.81;5000054;28;20210;-67
2021/01/10 04:03:45;;;;;;;20.83;10.10;;;;;;;-2.37;100.00;96718.44;5001055;28;20202;-68
2021/01/10 04:06:12;;;;;;;22.47;10.27;;;;;;;-2.36;100.00;96725.25;4999615;28;20815;-69
2021/01/10 04:08:37;;;;;;;24.97;9.83;;;;;;;-2.16;100.00;96713.81;5000195;28;20233;-68
2021/01/10 04:11:03;;;;;;;24.17;10.47;;;;;;;-2.13;100.00;96716.19;5000089;28;20203;-68
2021/01/10 04:13:29;;;;;;;27.23;11.17;;;;;;;-2.10;100.00;96706.53;5000539;28;20873;-68
2021/01/10 04:15:55;;;;;;;27.97;10.87;;;;;;;-2.32;100.00;96713.88;4998942;28;20715;-68
2021/01/10 04:18:21;;;;;;;23.93;10.73;;;;;;;-2.46;100.00;96707.00;4999827;28;20206;-68
2021/01/10 04:20:47;;;;;;;24.03;10.43;;;;;;;-2.55;100.00;96710.91;4999781;28;20207;-68
2021/01/10 04:23:14;;;;;;;23.50;10.37;;;;;;;-2.62;100.00;96701.88;5000581;28;20214;-68
2021/01/10 04:25:41;;;;;;;26.53;10.77;;;;;;;-2.60;100.00;96704.38;4998478;28;20223;-68
2021/01/10 04:28:07;;;;;;;25.90;10.80;;;;;;;-2.71;100.00;96701.56;5000305;28;20236;-69
2021/01/10 04:30:33;;;;;;;21.90;9.57;;;;;;;-2.92;100.00;96700.19;4999529;28;20248;-68
2021/01/10 04:32:58;;;;;;;23.73;10.10;;;;;;;-3.02;100.00;96704.19;4999972;28;20202;-68
2021/01/10 04:35:24;;;;;;;25.07;9.90;;;;;;;-2.91;100.00;96707.84;4999183;28;20237;-68
2021/01/10 04:37:50;;;;;;;22.63;10.10;;;;;;;-2.87;100.00;96711.09;4999535;28;21195;-68
2021/01/10 04:40:17;;;;;;;21.07;10.00;;;;;;;-2.97;100.00;96712.50;4999580;28;21270;-68
2021/01/10 04:42:45;;;;;;;23.63;9.20;;;;;;;-3.04;100.00;96712.91;4999952;28;20210;-68
2021/01/10 04:45:12;;;;;;;23.70;9.60;;;;;;;-3.32;100.00;96711.03;4998993;28;20593;-68
2021/01/10 04:47:37;;;;;;;21.20;9.20;;;;;;;-3.54;100.00;96707.94;4999193;28;20260;-71
2021/01/10 04:50:04;;;;;;;22.97;9.50;;;;;;;-3.61;100.00;96711.75;4999476;28;20744;-70
2021/01/10 04:52:33;;;;;;;22.30;9.50;;;;;;;-3.63;100.00;96708.44;4999504;28;20267;-70
2021/01/10 04:55:01;;;;;;;18.30;8.53;;;;;;;-3.65;100.00;96709.44;4998785;28;20233;-70
2021/01/10 04:57:32;;;;;;;19.43;8.37;;;;;;;-3.65;100.00;96709.44;4999363;28;20202;-70
2021/01/10 04:59:58;;;;;;;20.13;9.07;;;;;;;-3.65;100.00;96718.88;4998943;28;20245;-70
2021/01/10 05:02:26;;;;;;;22.50;9.90;;;;;;;-3.58;100.00;96716.75;4999217;28;21080;-71
2021/01/10 05:04:53;;;;;;;21.60;8.83;;;;;;;-3.58;100.00;96711.59;4999446;28;20223;-71
2021/01/10 05:07:20;;;;;;;20.73;8.80;;;;;;;-3.53;100.00;96714.75;4998659;28;20228;-70
2021/01/10 05:09:46;;;;;;;18.33;8.40;;;;;;;-3.55;100.00;96721.72;4998536;28;20268;-71
2021/01/10 05:12:12;;;;;;;19.23;8.93;;;;;;;-3.70;100.00;96721.72;4998915;28;20203;-69
2021/01/10 05:14:39;;;;;;;19.87;8.93;;;;;;;-3.67;100.00;96720.72;4999590;28;20231;-70
2021/01/10 05:17:05;;;;;;;19.53;8.80;;;;;;;-3.84;99.05;96718.19;4997911;28;20205;-71
2021/01/10 05:19:32;;;;;;;18.73;8.60;;;;;;;-4.18;97.66;96729.34;4998510;28;20588;-71
2021/01/10 05:22:05;;;;;;;21.57;8.33;;;;;;;-4.51;96.49;96729.41;4998850;28;20204;-71
2021/01/10 05:24:31;;;;;;;20.07;8.30;;;;;;;-4.60;97.27;96729.84;4999047;28;20230;-70
2021/01/10 05:26:58;;;;;;;21.53;8.63;;;;;;;-4.46;98.78;96727.44;4997633;28;20235;-71
2021/01/10 05:29:26;;;;;;;23.70;9.30;;;;;;;-4.42;100.00;96729.75;4998532;28;20349;-70
2021/01/10 05:31:53;;;;;;;21.17;8.83;;;;;;;-4.37;100.00;96732.13;4998561;28;20704;-71
2021/01/10 05:34:22;;;;;;;22.23;9.10;;;;;;;-4.32;100.00;96730.16;4998467;28;20294;-70
2021/01/10 05:36:48;;;;;;;20.87;9.03;;;;;;;-4.41;100.00;96734.00;4997888;28;20201;-70
2021/01/10 05:39:20;;;;;;;23.27;9.73;;;;;;;-4.39;100.00;96739.91;4998545;28;20211;-70
2021/01/10 05:41:51;;;;;;;21.73;8.70;;;;;;;-4.37;100.00;96750.94;4998603;28;20210;-71
2021/01/10 05:44:17;;;;;;;19.73;8.67;;;;;;;-4.45;100.00;96745.34;4998572;28;20232;-70
2021/01/10 05:46:44;;;;;;;24.97;9.80;;;;;;;-4.42;100.00;96744.38;4998003;28;20595;-70
2021/01/10 05:49:18;;;;;;;24.30;9.90;;;;;;;-4.38;100.00;96741.56;4998174;28;20630;-69
2021/01/10 05:51:45;;;;;;;24.03;9.27;;;;;;;-4.42;100.00;96744.38;4998614;28;20212;-70
2021/01/10 05:54:33;;;;;;;22.87;9.67;;;;;;;-4.39;100.00;96749.34;4998091;28;20286;-70
2021/01/10 05:57:00;;;;;;;24.77;9.70;;;;;;;-4.36;100.00;96744.91;4997258;28;21226;-70
2021/01/10 05:59:29;;;;;;;22.23;9.93;;;;;;;-4.44;100.00;96757.31;4997793;28;20515;-71
2021/01/10 06:01:55;;;;;;;20.93;8.73;;;;;;;-4.21;100.00;96754.44;4998382;28;20202;-71
2021/01/10 06:04:23;;;;;;;25.67;10.03;;;;;;;-4.26;100.00;96764.13;4998054;28;20231;-70
2021/01/10 06:06:49;;;;;;;20.40;9.10;;;;;;;-4.42;100.00;96755.47;4997394;28;20294;-70
2021/01/10 06:09:15;;;;;;;23.67;9.47;;;;;;;-4.68;100.00;96757.66;4997853;28;20215;-71
2021/01/10 06:11:41;;;;;;;24.87;9.50;;;;;;;-4.78;100.00;96759.84;4998510;28;20210;-71
2021/01/10 06:14:09;;;;;;;23.87;9.13;;;;;;;-4.81;100.00;96760.00;4997219;28;20216;-71
2021/01/10 06:16:37;;;;;;;26.30;10.23;;;;;;;-4.64;100.00;96759.19;4996848;28;20728;-70
2021/01/10 06:19:06;;;;;;;24.83;9.27;;;;;;;-4.42;100.00;96765.75;4997531;28;21253;-69
2021/01/10 06:21:34;;;;;;;26.80;9.70;;;;;;;-4.35;100.00;96763.72;4997941;28;20209;-70
2021/01/10 06:24:01;;;;;;;28.13;10.97;;;;;;;-4.37;100.00;96768.94;4997750;28;20225;-71
2021/01/10 06:26:29;;;;;;;23.43;9.73;;;;;;;-4.37;100.00;96766.38;4997487;28;20194;-70
2021/01/10 06:29:00;;;;;;;24.60;10.20;;;;;;;-4.34;100.00;96768.81;4997040;28;20211;-70
2021/01/10 06:31:29;;;;;;;22.97;10.00;;;;;;;-4.14;100.00;96766.06;4997135;28;20213;-71
2021/01/10 06:33:57;;;;;;;28.73;10.03;;;;;;;-4.00;100.00;96772.19;4997430;28;20206;-69
2021/01/10 06:36:24;;;;;;;29.17;10.90;;;;;;;-3.96;100.00;96763.41;4997257;28;20215;-70
2021/01/10 06:38:58;;;;;;;27.60;11.63;;;;;;;-3.89;100.00;96769.09;4997482;28;20715;-71
2021/01/10 06:41:57;;;;;;;32.60;12.33;;;;;;;-3.95;100.00;96767.63;4997425;28;20207;-70
2021/01/10 06:44:24;;;;;;;34.07;12.30;;;;;;;-3.83;100.00;96766.16;4997066;28;20233;-70
2021/01/10 06:46:51;;;;;;;32.47;12.60;;;;;;;-3.77;100.00;96771.03;4996626;28;20224;-70
2021/01/10 06:49:17;;;;;;;33.80;12.17;;;;;;;-3.80;100.00;96773.75;4997216;28;20210;-71
2021/01/10 06:51:45;;;;;;;32.77;12.73;;;;;;;-3.80;100.00;96760.88;4997243;28;20209;-70
2021/01/10 06:54:12;;;;;;;44.03;18.00;;;;;;;-3.77;100.00;96753.00;4997080;28;20470;-70
2021/01/10 06:56:38;;;;;;;39.27;15.97;;;;;;;-3.74;100.00;96765.69;4996551;28;20227;-70
2021/01/10 06:59:06;;;;;;;35.33;13.83;;;;;;;-3.67;100.00;96761.91;4997841;28;20205;-71
2021/01/10 07:02:00;;;;;;;39.30;14.40;;;;;;;-3.56;100.00;96758.69;4996346;28;20669;-71
2021/01/10 07:04:59;;;;;;;37.23;13.73;;;;;;;-3.57;100.00;96758.78;4997399;28;20234;-69
2021/01/10 07:07:39;;;;;;;35.97;13.50;;;;;;;-3.50;100.00;96758.38;4996826;28;20561;-71
2021/01/10 07:10:12;;;;;;;33.60;12.30;;;;;;;-3.55;100.00;96755.22;4997221;28;20566;-70
2021/01/10 07:12:38;;;;;;;41.27;13.43;;;;;;;-3.53;100.00;96755.13;4997139;28;20206;-71
2021/01/10 07:15:27;;;;;;;36.43;14.27;;;;;;;-3.43;100.00;96754.56;4997015;28;20233;-71
2021/01/10 07:18:07;;;;;;;39.63;17.93;;;;;;;-3.21;100.00;96747.34;4996749;28;20205;-71
2021/01/10 07:20:34;;;;;;;37.83;15.20;;;;;;;-3.18;100.00;96736.88;4997364;28;20199;-70
2021/01/10 07:23:29;;;;;;;54.40;21.60;;;;;;;-3.31;100.00;96743.63;4996899;28;20236;-71
2021/01/10 07:25:58;;;;;;;33.43;13.10;;;;;;;-3.24;100.00;96752.66;4995976;28;20233;-70
2021/01/10 07:28:41;;;;;;;36.87;13.50;;;;;;;-3.31;100.00;96756.50;4997392;28;20835;-69
2021/01/10 07:31:09;;;;;;;31.37;12.80;;;;;;;-3.26;100.00;96763.97;5000860;28;20216;-71
2021/01/10 07:33:36;;;;;;;32.50;12.67;;;;;;;-3.21;100.00;96760.22;5000831;28;20209;-71
2021/01/10 07:36:02;;;;;;;30.77;12.13;;;;;;;-3.27;100.00;96767.44;5000284;28;20538;-70
2021/01/10 07:38:30;;;;;;;31.10;12.87;;;;;;;-3.10;100.00;96765.63;5000879;28;20559;-71
2021/01/10 07:41:25;;;;;;;33.17;12.93;;;;;;;-3.00;100.00;96766.81;5000268;28;20209;-69
2021/01/10 07:43:53;;;;;;;33.53;12.13;;;;;;;-3.05;100.00;96776.53;5001247;28;20212;-71
2021/01/10 07:46:51;;;;;;;34.77;14.13;;;;;;;-2.90;100.00;96780.88;5000241;28;20217;-72
2021/01/10 07:49:18;;;;;;;29.97;12.13;;;;;;;-2.88;100.00;96782.44;5000857;28;20245;-72
2021/01/10 07:51:45;;;;;;;30.30;13.30;;;;;;;-2.92;100.00;96774.94;5000842;28;20228;-71
2021/01/10 07:54:11;;;;;;;30.30;12.67;;;;;;;-2.96;100.00;96782.00;5000811;28;20229;-70
2021/01/10 07:56:38;;;;;;;33.63;13.03;;;;;;;-2.85;100.00;96791.72;4999607;28;20213;-71
2021/01/10 07:59:14;;;;;;;29.10;11.83;;;;;;;-2.99;100.00;96789.91;5000013;28;20202;-71
2021/01/10 08:01:46;;;;;;;32.13;12.43;;;;;;;-2.96;100.00;96799.25;5000558;28;20243;-70
2021/01/10 08:04:30;;;;;;;30.53;12.67;;;;;;;-2.98;100.00;96794.16;5000065;28;20254;-71
2021/01/10 08:06:56;;;;;;;31.40;12.13;;;;;;;-2.91;100.00;96792.09;4999476;28;20280;-71
2021/01/10 08:09:29;;;;;;;31.77;12.60;;;;;;;-2.94;100.00;96793.09;5000224;28;20238;-71
2021/01/10 08:11:56;;;;;;;32.83;13.23;;;;;;;-2.82;100.00;96794.16;5000412;28;20212;-70
2021/01/10 08:14:22;;;;;;;33.87;13.37;;;;;;;-2.64;100.00;96791.41;4999838;28;20233;-71
2021/01/10 08:16:48;;;;;;;31.63;13.13;;;;;;;-2.61;100.00;96795.56;4999683;28;20741;-71
2021/01/10 08:19:16;;;;;;;31.23;12.97;;;;;;;-2.50;100.00;96788.88;4999795;28;20696;-71
2021/01/10 08:21:42;;;;;;;38.07;13.93;;;;;;;-2.44;100.00;96782.53;4999883;28;20711;-71
2021/01/10 08:24:08;;;;;;;35.33;12.93;;;;;;;-2.60;100.00;96786.91;4999830;28;20229;-71
2021/01/10 08:26:39;;;;;;;35.33;13.70;;;;;;;-2.73;100.00;96785.94;4999267;28;20202;-69
2021/01/10 08:29:06;;;;;;;26.17;11.47;;;;;;;-2.74;100.00;96785.06;4999093;28;20201;-71
2021/01/10 08:31:33;;;;;;;32.07;13.30;;;;;;;-2.69;100.00;96785.66;5000407;28;20201;-70
2021/01/10 08:34:01;;;;;;;34.73;13.97;;;;;;;-2.59;100.00;96786.00;4999600;28;20233;-69
2021/01/10 08:36:27;;;;;;;33.63;12.73;;;;;;;-2.55;100.00;96784.91;4999115;28;20751;-70
2021/01/10 08:38:56;;;;;;;33.20;12.80;;;;;;;-2.42;100.00;96785.88;4999245;28;20251;-71
2021/01/10 08:41:28;;;;;;;32.73;12.37;;;;;;;-2.61;100.00;96785.25;4999813;28;20432;-71
2021/01/10 08:43:56;;;;;;;33.50;12.57;;;;;;;-2.54;100.00;96782.22;4999020;28;20203;-71
2021/01/10 08:46:24;;;;;;;29.53;12.70;;;;;;;-2.64;100.00;96785.41;4998806;28;20217;-71
2021/01/10 08:48:50;;;;;;;31.77;12.03;;;;;;;-2.48;100.00;96787.06;4999491;28;20229;-70
2021/01/10 08:51:33;;;;;;;30.03;11.93;;;;;;;-2.36;100.00;96787.19;4999204;28;20752;-71
2021/01/10 08:54:00;;;;;;;28.93;12.27;;;;;;;-2.32;100.00;96786.13;4999572;28;20696;-71
2021/01/10 08:56:26;;;;;;;30.13;11.83;;;;;;;-2.29;100.00;96783.34;4999046;28;20723;-71
2021/01/10 08:58:56;;;;;;;28.83;11.33;;;;;;;-2.40;100.00;96782.28;4998589;28;20197;-71
2021/01/10 09:01:25;;;;;;;29.27;11.93;;;;;;;-2.36;100.00;96789.75;4998968;28;20209;-71
2021/01/10 09:04:02;;;;;;;32.03;12.40;;;;;;;-2.47;100.00;96793.84;4998122;28;20210;-69
2021/01/10 09:06:50;;;;;;;29.03;11.00;;;;;;;-2.44;100.00;96795.44;4999848;28;20200;-70
2021/01/10 09:09:25;;;;;;;30.77;12.73;;;;;;;-2.22;100.00;96805.28;4998868;28;20214;-71
2021/01/10 09:12:00;;;;;;;28.73;11.33;;;;;;;-2.15;100.00;96796.31;4998822;28;20206;-71
2021/01/10 09:14:32;;;;;;;31.73;12.80;;;;;;;-2.00;100.00;96794.59;4999270;28;21217;-71
2021/01/10 09:17:01;;;;;;;28.80;12.07;;;;;;;-2.01;100.00;96796.34;4998215;28;20206;-69
2021/01/10 09:19:29;;;;;;;32.43;12.33;;;;;;;-1.88;100.00;96797.28;4999020;28;21053;-71
2021/01/10 09:21:56;;;;;;;27.93;11.33;;;;;;;-1.97;100.00;96800.41;4999043;28;20202;-69
2021/01/10 09:24:31;;;;;;;29.67;12.13;;;;;;;-1.97;100.00;96797.81;4998744;28;20245;-70
2021/01/10 09:27:08;;;;;;;28.37;11.43;;;;;;;-2.09;100.00;96795.94;4998192;28;20206;-71
2021/01/10 09:29:34;;;;;;;31.80;12.13;;;;;;;-2.14;100.00;96792.81;4998614;28;20202;-70
2021/01/10 09:32:02;;;;;;;29.50;10.93;;;;;;;-2.10;100.00;96796.03;4998749;28;20213;-71
2021/01/10 09:34:28;;;;;;;30.17;11.97;;;;;;;-1.98;100.00;96796.16;4998382;28;20236;-71
2021/01/10 09:37:01;;;;;;;28.80;11.30;;;;;;;-1.85;100.00;96799.69;4997758;28;20214;-71
2021/01/10 09:39:37;;;;;;;27.13;10.93;;;;;;;-1.86;100.00;96792.84;4998089;28;20244;-70
2021/01/10 09:42:03;;;;;;;29.93;12.03;;;;;;;-1.78;100.00;96791.50;4998456;28;20209;-70
2021/01/10 09:44:31;;;;;;;28.83;11.77;;;;;;;-1.89;100.00;96793.03;4998594;28;20222;-71
2021/01/10 09:46:58;;;;;;;27.53;10.87;;;;;;;-1.88;100.00;96794.72;4997676;28;20231;-70
2021/01/10 09:49:30;;;;;;;29.43;11.77;;;;;;;-1.83;100.00;96787.53;4998076;28;20209;-71
2021/01/10 09:51:57;;;;;;;21.90;9.63;;;;;;;-1.79;100.00;96791.59;4996926;28;20968;-71
2021/01/10 09:54:25;;;;;;;21.27;8.97;;;;;;;-1.73;100.00;96792.06;4998682;28;20230;-70
2021/01/10 09:56:52;;;;;;;28.73;12.17;;;;;;;-1.56;100.00;96786.72;4997579;28;20264;-71
2021/01/10 09:59:39;;;;;;;31.63;12.57;;;;;;;-1.71;100.00;96786.81;4998258;28;21037;-71
2021/01/10 10:02:17;;;;;;;30.53;12.63;;;;;;;-1.84;100.00;96785.88;4997878;28;20209;-71
2021/01/10 10:04:46;;;;;;;32.07;12.87;;;;;;;-1.80;100.00;96779.59;4998491;28;20639;-71
2021/01/10 10:07:13;;;;;;;33.93;13.23;;;;;;;-1.67;100.00;96765.03;4996770;28;20229;-71
2021/01/10 10:09:51;;;;;;;27.27;10.40;;;;;;;-1.95;100.00;96772.72;4998310;28;20210;-71
2021/01/10 10:12:17;;;;;;;30.40;12.93;;;;;;;-1.97;100.00;96768.56;4997689;28;20245;-69
2021/01/10 10:14:53;;;;;;;29.33;13.27;;;;;;;-1.58;100.00;96773.09;4997778;28;20218;-71
2021/01/10 10:17:20;;;;;;;28.07;11.97;;;;;;;-1.77;100.00;96772.50;4997444;28;20213;-71
2021/01/10 10:19:47;;;;;;;32.07;12.80;;;;;;;-1.66;100.00;96766.69;4997718;28;20202;-71
2021/01/10 10:22:21;;;;;;;34.03;12.77;;;;;;;-1.71;100.00;96771.31;4997699;28;20882;-71
2021/01/10 10:24:47;;;;;;;33.17;13.73;;;;;;;-1.61;100.00;96762.91;4997357;28;20222;-71
2021/01/10 10:27:13;;;;;;;37.63;14.40;;;;;;;-1.82;100.00;96765.94;4997773;28;20321;-70
2021/01/10 10:29:39;;;;;;;34.13;14.37;;;;;;;-2.03;100.00;96759.44;4997768;28;20213;-71
2021/01/10 10:32:06;;;;;;;32.70;13.10;;;;;;;-1.98;100.00;96761.78;4997041;28;20226;-70
2021/01/10 10:34:32;;;;;;;35.93;15.10;;;;;;;-1.94;100.00;96758.09;4997875;28;20218;-71
2021/01/10 10:36:59;;;;;;;38.93;15.10;;;;;;;-1.90;100.00;96760.38;4996837;28;20930;-71
2021/01/10 10:39:26;;;;;;;37.87;14.40;;;;;;;-1.71;100.00;96759.22;4997111;28;20210;-71
2021/01/10 10:41:52;;;;;;;39.43;14.83;;;;;;;-1.58;100.00;96755.00;4997911;28;20207;-72
2021/01/10 10:44:18;;;;;;;41.63;14.53;;;;;;;-1.54;100.00;96750.44;4997409;28;20291;-72
2021/01/10 10:46:44;;;;;;;36.90;13.93;;;;;;;-1.49;100.00;96753.59;4996721;28;20261;-71
2021/01/10 10:49:10;;;;;;;42.63;14.10;;;;;;;-1.48;100.00;96747.50;4997689;28;20232;-71
2021/01/10 10:51:36;;;;;;;37.27;14.07;;;;;;;-1.34;100.00;96750.91;4997163;28;20308;-70
2021/01/10 10:54:03;;;;;;;41.80;15.43;;;;;;;-1.35;100.00;96749.28;4997100;28;20392;-70
2021/01/10 10:56:35;;;;;;;36.17;13.63;;;;;;;-1.50;100.00;96749.34;4997121;28;20199;-71
2021/01/10 10:59:01;;;;;;;36.40;14.50;;;;;;;-1.18;100.00;96751.66;4997563;28;20626;-67
2021/01/10 11:01:37;;;;;;;35.17;14.10;;;;;;;-1.03;100.00;96756.69;4996820;28;20681;-69
2021/01/10 11:04:03;;;;;;;36.10;13.93;;;;;;;-1.01;100.00;96754.81;4996574;28;20222;-70
2021/01/10 11:06:29;;;;;;;38.53;14.57;;;;;;;-1.05;100.00;96757.72;4996859;28;20194;-70
2021/01/10 11:08:55;;;;;;;31.83;12.03;;;;;;;-1.70;100.00;96758.28;4996758;28;20337;-70
2021/01/10 11:11:22;;;;;;;34.50;14.13;;;;;;;-1.52;100.00;96756.38;4997125;28;20792;-71
2021/01/10 11:13:48;;;;;;;35.10;12.37;;;;;;;-1.38;100.00;96756.38;4997115;28;20225;-71
2021/01/10 11:16:14;;;;;;;35.43;14.47;;;;;;;-1.52;100.00;96748.63;4996785;28;20215;-71
2021/01/10 11:18:41;;;;;;;41.43;14.67;;;;;;;-1.49;100.00;96753.59;4996707;28;20199;-71